Terminal Aerodrome Forecast
Issued by NWS

Home | Current Version | Previous Version | Text Only | Print | Product List | Glossary On
Versions: 1 2 3 4 5 6 7 8 9 10 11 12 13
000
FTAK31 PAFA 240538
TAFABT
TAF
PABT 240538Z 2406/2506 00000KT P6SM FEW030 BKN070
     FM240900 02005KT P6SM -SHRA OVC035
     FM250000 03006KT P6SM BKN050 BKN100=

USA.gov is the U.S. government's official web portal to all federal, state and local government web resources and services.